Terminal Aerodrome Forecast
Issued by NWS

Home | Current Version | Previous Version | Text Only | Print | Product List | Glossary On
Versions: 1 2 3 4 5 6 7 8 9 10 11 12 13 14 15 16
321
FTUS45 KTFX 171725
TAFGTF
TAF
KGTF 171725Z 1718/1818 29009KT P6SM FEW090 SCT150
     FM180300 22010KT P6SM SKC=

USA.gov is the U.S. government's official web portal to all federal, state and local government web resources and services.